Terminal Aerodrome Forecast
Issued by NWS Upton, NY

Home | Current Version | Previous Version | Text Only | Print | Product List | Glossary On
Versions: 1 2 3 4 5 6 7 8 9 10 11 12 13 14 15 16 17 18 19 20 21 22 23 24
000
FTUS41 KOKX 150800 AAA
TAFISP
TAF AMD
KISP 150835Z 1509/1606 VRB04KT P6SM SCT045
     FM151800 28007KT P6SM SKC
     FM152100 21007KT P6SM FEW250
     FM160200 VRB03KT P6SM FEW150 BKN250=

USA.gov is the U.S. government's official web portal to all federal, state and local government web resources and services.